createdAt,value
2018-10-02T00:00:22.982Z,9.94
2018-10-02T00:01:03.514Z,9.97
2018-10-02T00:01:44.079Z,9.92
2018-10-02T00:02:24.636Z,9.98
2018-10-02T00:03:05.206Z,9.94
2018-10-02T00:03:45.751Z,9.97
2018-10-02T00:04:26.305Z,10.01
2018-10-02T00:05:06.847Z,10.01
2018-10-02T00:05:47.435Z,10.01
2018-10-02T00:06:27.990Z,9.89
2018-10-02T00:07:08.545Z,9.87
2018-10-02T00:07:49.145Z,9.84
2018-10-02T00:08:29.696Z,9.8
2018-10-02T00:09:10.289Z,9.87
2018-10-02T00:09:50.830Z,9.92
2018-10-02T00:10:31.377Z,9.82
2018-10-02T00:11:11.942Z,9.86
2018-10-02T00:11:52.504Z,9.83
2018-10-02T00:12:33.066Z,9.83
2018-10-02T00:13:13.649Z,9.77
2018-10-02T00:13:54.214Z,9.95
2018-10-02T00:14:34.769Z,9.84
2018-10-02T00:15:15.317Z,9.84
2018-10-02T00:15:55.874Z,9.82
2018-10-02T00:16:36.428Z,9.77
2018-10-02T00:17:17.000Z,9.72
2018-10-02T00:17:57.557Z,9.74
2018-10-02T00:18:38.108Z,9.79
2018-10-02T00:19:18.667Z,9.74
2018-10-02T00:19:59.229Z,9.83
2018-10-02T00:20:39.817Z,9.76
2018-10-02T00:21:20.379Z,9.74
2018-10-02T00:22:00.934Z,9.73
2018-10-02T00:22:41.473Z,9.72
2018-10-02T00:23:22.036Z,9.76
2018-10-02T00:24:02.587Z,9.73
2018-10-02T00:24:43.139Z,9.73
2018-10-02T00:25:23.697Z,9.73
2018-10-02T00:26:04.241Z,9.72
2018-10-02T00:26:44.796Z,9.73
2018-10-02T00:27:25.362Z,9.72
2018-10-02T00:28:05.911Z,9.72
2018-10-02T00:28:46.467Z,9.72
2018-10-02T00:29:27.033Z,9.74
2018-10-02T00:30:07.582Z,9.79
2018-10-02T00:30:48.168Z,9.66
2018-10-02T00:31:28.899Z,9.69
2018-10-02T00:32:09.513Z,9.72
2018-10-02T00:32:49.906Z,9.68
2018-10-02T00:33:30.468Z,9.72
2018-10-02T00:34:11.023Z,9.72
2018-10-02T00:34:51.592Z,9.73
2018-10-02T00:35:32.148Z,9.69
2018-10-02T00:36:12.717Z,9.73
2018-10-02T00:36:53.280Z,9.74
2018-10-02T00:37:33.842Z,9.69
2018-10-02T00:38:14.554Z,9.76
2018-10-02T00:38:55.115Z,9.74
2018-10-02T00:39:35.680Z,9.68
2018-10-02T00:40:16.254Z,9.69
2018-10-02T00:40:56.813Z,9.73
2018-10-02T00:41:37.377Z,9.69
2018-10-02T00:42:17.930Z,9.62
2018-10-02T00:42:58.527Z,9.69
2018-10-02T00:43:39.096Z,9.72
2018-10-02T00:44:19.664Z,9.74
2018-10-02T00:45:00.241Z,9.69
2018-10-02T00:45:40.786Z,9.69
2018-10-02T00:46:21.343Z,9.73
2018-10-02T00:47:01.927Z,9.72
2018-10-02T00:47:42.480Z,9.77
2018-10-02T00:48:23.031Z,9.64
2018-10-02T00:49:03.580Z,9.69
2018-10-02T00:49:44.151Z,9.77
2018-10-02T00:50:24.705Z,9.77
2018-10-02T00:51:05.251Z,9.72
2018-10-02T00:51:45.804Z,9.69
2018-10-02T00:52:26.398Z,9.55
2018-10-02T00:53:06.981Z,9.69
2018-10-02T00:53:47.550Z,9.79
2018-10-02T00:54:28.119Z,9.68
2018-10-02T00:55:08.670Z,9.68
2018-10-02T00:55:49.217Z,9.74
2018-10-02T00:56:29.824Z,9.73
2018-10-02T00:57:10.379Z,9.72
2018-10-02T00:57:50.931Z,9.65
2018-10-02T00:58:31.487Z,9.72
2018-10-02T00:59:12.056Z,9.66
2018-10-02T00:59:52.590Z,9.77
2018-10-02T01:00:33.163Z,9.69
2018-10-02T01:01:13.715Z,9.68
2018-10-02T01:01:54.289Z,9.72
2018-10-02T01:02:34.831Z,9.69
2018-10-02T01:03:15.391Z,9.66
2018-10-02T01:03:55.959Z,9.59
2018-10-02T01:04:36.521Z,9.66
2018-10-02T01:05:17.064Z,9.58
2018-10-02T01:05:57.621Z,9.69
2018-10-02T01:06:38.175Z,9.65
2018-10-02T01:07:18.743Z,9.62
2018-10-02T01:07:59.292Z,9.65
2018-10-02T01:08:39.842Z,9.65
2018-10-02T01:09:20.417Z,9.61
2018-10-02T01:10:00.978Z,9.61
2018-10-02T01:10:41.533Z,9.64
2018-10-02T01:11:22.090Z,9.54
2018-10-02T01:12:02.652Z,9.59
2018-10-02T01:12:43.206Z,9.55
2018-10-02T01:13:23.768Z,9.51
2018-10-02T01:14:04.367Z,9.54
2018-10-02T01:14:44.916Z,9.5
2018-10-02T01:15:25.469Z,9.46
2018-10-02T01:16:06.045Z,9.54
2018-10-02T01:16:46.609Z,9.51
2018-10-02T01:17:27.174Z,9.59
2018-10-02T01:18:07.748Z,9.46
2018-10-02T01:18:48.298Z,9.48
2018-10-02T01:19:28.861Z,9.55
2018-10-02T01:20:09.427Z,9.55
2018-10-02T01:20:49.991Z,9.54
2018-10-02T01:21:30.544Z,9.5
2018-10-02T01:22:11.098Z,9.54
2018-10-02T01:22:51.670Z,9.48
2018-10-02T01:23:32.240Z,9.5
2018-10-02T01:24:12.774Z,9.48
2018-10-02T01:24:53.365Z,9.47
2018-10-02T01:25:33.976Z,9.47
2018-10-02T01:26:14.549Z,9.46
2018-10-02T01:26:55.125Z,9.48
2018-10-02T01:27:35.675Z,9.46
2018-10-02T01:28:16.262Z,9.47
2018-10-02T01:28:56.820Z,9.47
2018-10-02T01:29:37.371Z,9.54
2018-10-02T01:30:17.928Z,9.46
2018-10-02T01:30:58.479Z,9.4
2018-10-02T01:31:39.039Z,9.39
2018-10-02T01:32:19.592Z,9.4
2018-10-02T01:33:00.155Z,9.46
2018-10-02T01:33:40.720Z,9.34
2018-10-02T01:34:21.264Z,9.41
2018-10-02T01:35:01.825Z,9.4
2018-10-02T01:35:42.397Z,9.43
2018-10-02T01:36:22.946Z,9.37
2018-10-02T01:37:03.498Z,9.39
2018-10-02T01:37:44.057Z,9.37
2018-10-02T01:38:24.617Z,9.39
2018-10-02T01:39:05.163Z,9.36
2018-10-02T01:39:45.713Z,9.41
2018-10-02T01:40:26.275Z,9.4
2018-10-02T01:41:06.838Z,9.31
2018-10-02T01:41:47.398Z,9.37
2018-10-02T01:42:27.968Z,9.31
2018-10-02T01:43:08.535Z,9.36
2018-10-02T01:43:49.091Z,9.36
2018-10-02T01:44:29.657Z,9.34
2018-10-02T01:45:10.214Z,9.39
2018-10-02T01:45:50.760Z,9.36
2018-10-02T01:46:31.316Z,9.39
2018-10-02T01:47:11.878Z,9.37
2018-10-02T01:47:52.439Z,9.37
2018-10-02T01:48:32.997Z,9.34
2018-10-02T01:49:13.593Z,9.36
2018-10-02T01:49:54.166Z,9.36
2018-10-02T01:50:34.726Z,9.37
2018-10-02T01:51:15.276Z,9.37
2018-10-02T01:51:55.847Z,9.36
2018-10-02T01:52:36.395Z,9.36
2018-10-02T01:53:16.945Z,9.31
2018-10-02T01:53:57.498Z,9.31
2018-10-02T01:54:38.062Z,9.32
2018-10-02T01:55:18.613Z,9.37
2018-10-02T01:55:59.164Z,9.26
2018-10-02T01:56:39.716Z,9.31
2018-10-02T01:57:20.277Z,9.28
2018-10-02T01:58:00.835Z,9.28
2018-10-02T01:58:41.403Z,9.34
2018-10-02T01:59:21.970Z,9.26
2018-10-02T02:00:02.531Z,9.31
2018-10-02T02:00:43.094Z,9.29
2018-10-02T02:01:23.652Z,9.29
2018-10-02T02:02:04.200Z,9.36
2018-10-02T02:02:44.761Z,9.28
2018-10-02T02:03:25.313Z,9.23
2018-10-02T02:04:05.871Z,9.26
2018-10-02T02:04:46.443Z,9.31
2018-10-02T02:05:27.019Z,9.26
2018-10-02T02:06:07.583Z,9.32
2018-10-02T02:06:48.134Z,9.34
2018-10-02T02:07:28.707Z,9.26
2018-10-02T02:08:09.293Z,9.18
2018-10-02T02:08:49.845Z,9.26
2018-10-02T02:09:30.410Z,9.16
2018-10-02T02:10:10.954Z,9.25
2018-10-02T02:10:51.508Z,9.23
2018-10-02T02:11:32.071Z,9.18
2018-10-02T02:12:12.628Z,9.23
2018-10-02T02:12:53.179Z,9.25
2018-10-02T02:13:33.738Z,9.25
2018-10-02T02:14:14.297Z,9.26
2018-10-02T02:14:54.852Z,9.23
2018-10-02T02:15:35.396Z,9.25
2018-10-02T02:16:15.966Z,9.23
2018-10-02T02:16:56.517Z,9.26
2018-10-02T02:17:37.065Z,9.21
2018-10-02T02:18:17.620Z,9.21
2018-10-02T02:18:58.182Z,9.29
2018-10-02T02:19:38.727Z,9.26
2018-10-02T02:20:19.298Z,9.19
2018-10-02T02:20:59.856Z,9.22
2018-10-02T02:21:40.400Z,9.22
2018-10-02T02:22:20.955Z,9.14
2018-10-02T02:23:01.506Z,9.11
2018-10-02T02:23:42.081Z,9.1
2018-10-02T02:24:22.666Z,9.14
2018-10-02T02:25:03.222Z,9.08
2018-10-02T02:25:44.761Z,9.1
2018-10-02T02:26:25.325Z,9.1
2018-10-02T02:27:05.873Z,9.1
2018-10-02T02:27:46.434Z,9.08
2018-10-02T02:28:26.988Z,9.11
2018-10-02T02:29:07.561Z,9.11
2018-10-02T02:29:48.103Z,9.13
2018-10-02T02:30:28.682Z,9.1
2018-10-02T02:31:09.279Z,9.1
2018-10-02T02:31:49.850Z,9.13
2018-10-02T02:32:30.440Z,9.1
2018-10-02T02:33:11.012Z,9.06
2018-10-02T02:33:51.588Z,9.13
2018-10-02T02:34:32.153Z,9.1
2018-10-02T02:35:12.710Z,9.04
2018-10-02T02:35:53.287Z,9.08
2018-10-02T02:36:33.885Z,9.1
2018-10-02T02:37:14.438Z,9.13
2018-10-02T02:37:54.991Z,9.13
2018-10-02T02:38:35.551Z,9.13
2018-10-02T02:39:16.114Z,9.14
2018-10-02T02:39:56.676Z,9.13
2018-10-02T02:40:37.245Z,9.1
2018-10-02T02:41:17.800Z,9.13
2018-10-02T02:41:58.360Z,9
2018-10-02T02:42:38.925Z,8.99
2018-10-02T02:43:19.526Z,8.99
2018-10-02T02:44:00.091Z,9.04
2018-10-02T02:44:40.648Z,9.04
2018-10-02T02:45:21.218Z,9.04
2018-10-02T02:46:01.774Z,9.08
2018-10-02T02:46:42.327Z,9.04
2018-10-02T02:47:22.885Z,9.11
2018-10-02T02:48:03.457Z,8.95
2018-10-02T02:48:44.028Z,8.99
2018-10-02T02:49:24.600Z,9.1
2018-10-02T02:50:05.164Z,8.97
2018-10-02T02:50:45.732Z,8.99
2018-10-02T02:51:26.308Z,9.1
2018-10-02T02:52:06.858Z,9.08
2018-10-02T02:52:47.402Z,8.99
2018-10-02T02:53:28.079Z,8.94
2018-10-02T02:54:08.640Z,8.97
2018-10-02T02:54:49.197Z,8.95
2018-10-02T02:55:29.753Z,9.04
2018-10-02T02:56:10.306Z,9.08
2018-10-02T02:56:50.861Z,9.13
2018-10-02T02:57:31.403Z,9.03
2018-10-02T02:58:11.955Z,9.02
2018-10-02T02:58:52.509Z,9.04
2018-10-02T02:59:33.052Z,8.99
2018-10-02T03:00:13.591Z,9
2018-10-02T03:00:54.144Z,9.06
2018-10-02T03:01:34.696Z,9.04
2018-10-02T03:02:15.256Z,8.95
2018-10-02T03:02:55.816Z,8.95
2018-10-02T03:03:36.376Z,8.97
2018-10-02T03:04:16.931Z,8.99
2018-10-02T03:04:57.479Z,9.03
2018-10-02T03:05:38.024Z,9.13
2018-10-02T03:06:18.573Z,9.03
2018-10-02T03:06:59.124Z,9.1
2018-10-02T03:07:39.673Z,8.97
2018-10-02T03:08:20.261Z,8.97
2018-10-02T03:09:00.813Z,8.94
2018-10-02T03:09:41.380Z,8.94
2018-10-02T03:10:21.938Z,8.95
2018-10-02T03:11:02.505Z,9.03
2018-10-02T03:11:43.053Z,8.99
2018-10-02T03:12:23.772Z,8.95
2018-10-02T03:13:04.344Z,8.89
2018-10-02T03:13:44.962Z,8.91
2018-10-02T03:14:25.508Z,8.94
2018-10-02T03:15:06.084Z,8.89
2018-10-02T03:15:46.671Z,8.92
2018-10-02T03:16:27.214Z,8.95
2018-10-02T03:17:07.773Z,8.97
2018-10-02T03:17:48.322Z,8.94
2018-10-02T03:18:28.875Z,8.95
2018-10-02T03:19:09.427Z,8.95
2018-10-02T03:19:49.988Z,8.99
2018-10-02T03:20:30.544Z,8.92
2018-10-02T03:21:11.101Z,8.92
2018-10-02T03:21:51.731Z,8.95
2018-10-02T03:22:32.271Z,8.99
2018-10-02T03:23:12.898Z,9.02
2018-10-02T03:23:53.423Z,9
2018-10-02T03:24:33.985Z,9
2018-10-02T03:25:14.538Z,9.02
2018-10-02T03:25:55.119Z,8.94
2018-10-02T03:26:35.704Z,8.97
2018-10-02T03:27:16.253Z,8.89
2018-10-02T03:27:56.809Z,8.99
2018-10-02T03:28:37.382Z,8.89
2018-10-02T03:29:17.942Z,8.91
2018-10-02T03:29:58.501Z,8.92
2018-10-02T03:30:39.067Z,8.94
2018-10-02T03:31:19.617Z,8.92
2018-10-02T03:32:00.167Z,8.94
2018-10-02T03:32:40.746Z,8.88
2018-10-02T03:33:21.288Z,8.95
2018-10-02T03:34:01.844Z,8.95
2018-10-02T03:34:42.406Z,8.95
2018-10-02T03:35:22.957Z,8.85
2018-10-02T03:36:03.508Z,8.88
2018-10-02T03:36:44.094Z,8.91
2018-10-02T03:37:24.655Z,8.91
2018-10-02T03:38:05.223Z,8.92
2018-10-02T03:38:45.794Z,8.95
2018-10-02T03:39:26.388Z,8.91
2018-10-02T03:40:06.942Z,8.99
2018-10-02T03:40:47.515Z,8.94
2018-10-02T03:41:28.090Z,8.92
2018-10-02T03:42:08.631Z,8.87
2018-10-02T03:42:49.211Z,8.91
2018-10-02T03:43:29.764Z,8.89
2018-10-02T03:44:10.333Z,8.88
2018-10-02T03:44:50.912Z,8.92
2018-10-02T03:45:31.497Z,8.97
2018-10-02T03:46:12.028Z,8.94
2018-10-02T03:46:52.576Z,8.92
2018-10-02T03:47:33.142Z,8.97
2018-10-02T03:48:13.700Z,8.89
2018-10-02T03:48:54.303Z,8.91
2018-10-02T03:49:34.820Z,8.94
2018-10-02T03:50:15.370Z,8.94
2018-10-02T03:50:55.934Z,8.94
2018-10-02T03:51:36.521Z,8.92
2018-10-02T03:52:17.085Z,8.92
2018-10-02T03:52:57.670Z,8.91
2018-10-02T03:53:38.194Z,8.92
2018-10-02T03:54:18.775Z,8.92
2018-10-02T03:54:59.330Z,8.88
2018-10-02T03:55:39.901Z,8.91
2018-10-02T03:56:20.476Z,8.87
2018-10-02T03:57:01.041Z,8.91
2018-10-02T03:57:41.602Z,8.88
2018-10-02T03:58:22.157Z,8.85
2018-10-02T03:59:02.720Z,8.88
2018-10-02T03:59:43.304Z,8.88
2018-10-02T04:00:23.873Z,8.87
2018-10-02T04:01:05.269Z,8.89
2018-10-02T04:01:45.825Z,8.87
2018-10-02T04:02:26.407Z,8.87
2018-10-02T04:03:06.943Z,8.88
2018-10-02T04:03:47.511Z,8.91
2018-10-02T04:04:28.199Z,8.89
2018-10-02T04:05:08.773Z,8.84
2018-10-02T04:05:49.321Z,8.91
2018-10-02T04:06:29.899Z,8.89
2018-10-02T04:07:10.461Z,8.91
2018-10-02T04:07:51.233Z,8.89
2018-10-02T04:08:31.800Z,8.87
2018-10-02T04:09:12.359Z,8.88
2018-10-02T04:09:53.068Z,8.91
2018-10-02T04:10:33.619Z,8.85
2018-10-02T04:11:14.159Z,8.89
2018-10-02T04:11:54.736Z,8.88
2018-10-02T04:12:35.288Z,8.89
2018-10-02T04:13:15.936Z,8.89
2018-10-02T04:13:56.394Z,8.78
2018-10-02T04:14:36.949Z,8.85
2018-10-02T04:15:17.515Z,8.78
2018-10-02T04:15:58.133Z,8.81
2018-10-02T04:16:38.849Z,8.79
2018-10-02T04:17:19.412Z,8.76
2018-10-02T04:18:00.483Z,8.73
2018-10-02T04:18:41.057Z,8.79
2018-10-02T04:19:21.631Z,8.79
2018-10-02T04:20:02.186Z,8.79
2018-10-02T04:20:42.828Z,8.73
2018-10-02T04:21:23.672Z,8.81
2018-10-02T04:22:04.291Z,8.73
2018-10-02T04:22:44.982Z,8.78
2018-10-02T04:23:25.534Z,8.76
2018-10-02T04:24:06.109Z,8.78
2018-10-02T04:24:46.671Z,8.78
2018-10-02T04:25:27.425Z,8.74
2018-10-02T04:26:08.263Z,8.73
2018-10-02T04:26:48.824Z,8.7
2018-10-02T04:27:29.516Z,8.7
2018-10-02T04:28:10.108Z,8.7
2018-10-02T04:28:50.811Z,8.69
2018-10-02T04:29:31.372Z,8.63
2018-10-02T04:30:12.334Z,8.67
2018-10-02T04:30:52.904Z,8.67
2018-10-02T04:31:33.616Z,8.7
2018-10-02T04:32:14.256Z,8.67
2018-10-02T04:32:54.839Z,8.7
2018-10-02T04:33:35.387Z,8.58
2018-10-02T04:34:16.476Z,8.69
2018-10-02T04:34:56.911Z,8.6
2018-10-02T04:35:38.195Z,8.66
2018-10-02T04:36:18.728Z,8.63
2018-10-02T04:36:59.288Z,8.6
2018-10-02T04:37:39.836Z,8.63
2018-10-02T04:38:20.416Z,8.58
2018-10-02T04:39:00.973Z,8.58
2018-10-02T04:39:41.561Z,8.7
2018-10-02T04:40:22.123Z,8.6
2018-10-02T04:41:02.699Z,8.64
2018-10-02T04:41:43.254Z,8.6
2018-10-02T04:42:23.929Z,8.61
2018-10-02T04:43:04.508Z,8.66
2018-10-02T04:43:45.164Z,8.61
2018-10-02T04:44:25.949Z,8.66
2018-10-02T04:45:06.504Z,8.61
2018-10-02T04:45:47.075Z,8.61
2018-10-02T04:46:27.625Z,8.6
2018-10-02T04:47:08.172Z,8.6
2018-10-02T04:47:48.987Z,8.63
2018-10-02T04:48:29.668Z,8.61
2018-10-02T04:49:10.331Z,8.61
2018-10-02T04:49:50.891Z,8.6
2018-10-02T04:50:31.726Z,8.6
2018-10-02T04:51:12.296Z,8.6
2018-10-02T04:51:52.864Z,8.58
2018-10-02T04:52:33.415Z,8.64
2018-10-02T04:53:13.984Z,8.6
2018-10-02T04:53:54.548Z,8.61
2018-10-02T04:54:35.120Z,8.58
2018-10-02T04:55:16.320Z,8.63
2018-10-02T04:55:57.553Z,8.61
2018-10-02T04:56:38.441Z,8.53
2018-10-02T04:57:19.416Z,8.66
2018-10-02T04:57:59.990Z,8.61
2018-10-02T04:58:40.904Z,8.6
2018-10-02T04:59:22.099Z,8.6
2018-10-02T05:00:02.995Z,8.6
2018-10-02T05:00:43.600Z,8.63
2018-10-02T05:01:24.234Z,8.64
2018-10-02T05:02:04.828Z,8.6
2018-10-02T05:02:45.509Z,8.6
2018-10-02T05:03:26.139Z,8.56
2018-10-02T05:04:06.688Z,8.63
2018-10-02T05:04:47.238Z,8.6
2018-10-02T05:05:27.789Z,8.64
2018-10-02T05:06:08.355Z,8.55
2018-10-02T05:06:48.916Z,8.61
2018-10-02T05:07:29.487Z,8.58
2018-10-02T05:08:10.067Z,8.61
2018-10-02T05:08:50.694Z,8.63
2018-10-02T05:09:31.149Z,8.61
2018-10-02T05:10:11.714Z,8.61
2018-10-02T05:10:52.283Z,8.64
2018-10-02T05:11:32.841Z,8.63
2018-10-02T05:12:13.402Z,8.64
2018-10-02T05:12:53.967Z,8.61
2018-10-02T05:13:34.528Z,8.6
2018-10-02T05:14:15.161Z,8.6
2018-10-02T05:14:55.647Z,8.61
2018-10-02T05:15:36.277Z,8.6
2018-10-02T05:16:16.818Z,8.64
2018-10-02T05:16:57.372Z,8.58
2018-10-02T05:17:37.943Z,8.53
2018-10-02T05:18:18.506Z,8.52
2018-10-02T05:18:59.072Z,8.45
2018-10-02T05:19:39.635Z,8.52
2018-10-02T05:20:20.185Z,8.49
2018-10-02T05:21:00.747Z,8.52
2018-10-02T05:21:41.304Z,8.48
2018-10-02T05:22:21.866Z,8.49
2018-10-02T05:23:02.428Z,8.48
2018-10-02T05:23:42.978Z,8.53
2018-10-02T05:24:23.550Z,8.48
2018-10-02T05:25:04.107Z,8.51
2018-10-02T05:25:44.658Z,8.46
2018-10-02T05:26:25.221Z,8.48
2018-10-02T05:27:05.846Z,8.45
2018-10-02T05:27:46.397Z,8.42
2018-10-02T05:28:26.863Z,8.46
2018-10-02T05:29:07.422Z,8.38
2018-10-02T05:29:47.973Z,8.45
2018-10-02T05:30:28.522Z,8.44
2018-10-02T05:31:09.091Z,8.42
2018-10-02T05:31:49.648Z,8.48
2018-10-02T05:32:30.193Z,8.44
2018-10-02T05:33:10.768Z,8.42
2018-10-02T05:33:51.328Z,8.46
2018-10-02T05:34:31.902Z,8.42
2018-10-02T05:35:12.647Z,8.48
2018-10-02T05:35:53.012Z,8.53
2018-10-02T05:36:33.649Z,8.52
2018-10-02T05:37:14.192Z,8.45
2018-10-02T05:37:54.744Z,8.42
2018-10-02T05:38:35.307Z,8.52
2018-10-02T05:39:15.867Z,8.49
2018-10-02T05:39:56.442Z,8.51
2018-10-02T05:40:37.005Z,8.53
2018-10-02T05:41:17.554Z,8.49
2018-10-02T05:41:58.122Z,8.53
2018-10-02T05:42:38.700Z,8.52
2018-10-02T05:43:19.246Z,8.49
2018-10-02T05:43:59.798Z,8.53
2018-10-02T05:44:40.365Z,8.51
2018-10-02T05:45:20.925Z,8.49
2018-10-02T05:46:03.830Z,8.49
2018-10-02T05:46:42.551Z,8.53
2018-10-02T05:47:23.121Z,8.53
2018-10-02T05:48:03.716Z,8.49
2018-10-02T05:48:44.303Z,8.51
2018-10-02T05:49:24.864Z,8.55
2018-10-02T05:50:05.437Z,8.55
2018-10-02T05:50:46.010Z,8.53
2018-10-02T05:51:26.547Z,8.63
2018-10-02T05:52:07.356Z,8.48
2018-10-02T05:52:48.270Z,8.52
2018-10-02T05:53:28.820Z,8.51
2018-10-02T05:54:09.377Z,8.64
2018-10-02T05:54:49.944Z,8.58
2018-10-02T05:55:30.503Z,8.64
2018-10-02T05:56:11.148Z,8.61
2018-10-02T05:56:51.705Z,8.58
2018-10-02T05:57:32.254Z,8.58
2018-10-02T05:58:12.933Z,8.64
2018-10-02T05:58:53.408Z,8.67
2018-10-02T05:59:33.995Z,8.64
2018-10-02T06:00:14.548Z,8.63
2018-10-02T06:00:55.105Z,8.7
2018-10-02T06:01:35.665Z,8.6
2018-10-02T06:02:16.219Z,8.61
2018-10-02T06:02:56.798Z,8.71
2018-10-02T06:03:37.450Z,8.61
2018-10-02T06:04:17.948Z,8.7
2018-10-02T06:04:58.516Z,8.61
2018-10-02T06:05:39.072Z,8.58
2018-10-02T06:06:19.651Z,8.52
2018-10-02T06:07:00.220Z,8.49
2018-10-02T06:07:40.774Z,8.51
2018-10-02T06:08:21.346Z,8.49
2018-10-02T06:09:02.962Z,8.48
2018-10-02T06:09:43.561Z,8.46
2018-10-02T06:10:24.069Z,8.49
2018-10-02T06:11:04.625Z,8.52
2018-10-02T06:11:45.162Z,8.49
2018-10-02T06:12:25.724Z,8.51
2018-10-02T06:13:06.281Z,8.51
2018-10-02T06:13:46.958Z,8.48
2018-10-02T06:14:27.547Z,8.52
2018-10-02T06:15:08.087Z,8.58
2018-10-02T06:15:48.636Z,8.61
2018-10-02T06:16:29.200Z,8.61
2018-10-02T06:17:09.855Z,8.53
2018-10-02T06:17:50.362Z,8.52
2018-10-02T06:18:30.878Z,8.61
2018-10-02T06:19:11.431Z,8.63
2018-10-02T06:19:51.998Z,8.63
2018-10-02T06:20:32.556Z,8.56
2018-10-02T06:21:13.141Z,8.73
2018-10-02T06:21:53.701Z,8.6
2018-10-02T06:22:34.261Z,8.67
2018-10-02T06:23:14.857Z,8.63
2018-10-02T06:23:55.445Z,8.61
2018-10-02T06:24:36.023Z,8.66
2018-10-02T06:25:16.588Z,8.7
2018-10-02T06:25:57.148Z,8.74
2018-10-02T06:26:37.712Z,8.76
2018-10-02T06:27:18.296Z,8.73
2018-10-02T06:27:58.853Z,8.74
2018-10-02T06:28:39.413Z,8.7
2018-10-02T06:29:20.003Z,8.78
2018-10-02T06:30:00.552Z,8.78
2018-10-02T06:30:41.113Z,8.74
2018-10-02T06:31:21.723Z,8.71
2018-10-02T06:32:02.497Z,8.78
2018-10-02T06:32:43.115Z,8.74
2018-10-02T06:33:23.626Z,8.89
2018-10-02T06:34:04.247Z,8.89
2018-10-02T06:34:44.828Z,8.91
2018-10-02T06:35:25.378Z,8.89
2018-10-02T06:36:05.947Z,9
2018-10-02T06:36:46.600Z,8.88
2018-10-02T06:37:27.134Z,8.97
2018-10-02T06:38:07.872Z,8.97
2018-10-02T06:38:48.354Z,8.95
2018-10-02T06:39:28.909Z,9.02
2018-10-02T06:40:09.473Z,9.08
2018-10-02T06:40:50.030Z,9.13
2018-10-02T06:41:30.586Z,9.1
2018-10-02T06:42:11.144Z,9.11
2018-10-02T06:42:51.709Z,9.13
2018-10-02T06:43:32.323Z,9.18
2018-10-02T06:44:12.836Z,9.25
2018-10-02T06:44:53.426Z,9.22
2018-10-02T06:45:34.003Z,9.23
2018-10-02T06:46:14.562Z,9.32
2018-10-02T06:46:55.124Z,9.31
2018-10-02T06:47:35.685Z,9.32
2018-10-02T06:48:16.262Z,9.47
2018-10-02T06:48:56.823Z,9.41
2018-10-02T06:49:37.383Z,9.55
2018-10-02T06:50:17.950Z,9.5
2018-10-02T06:50:58.590Z,9.59
2018-10-02T06:51:39.105Z,9.48
2018-10-02T06:52:19.807Z,9.65
2018-10-02T06:53:00.217Z,9.66
2018-10-02T06:53:40.767Z,9.64
2018-10-02T06:54:21.335Z,9.68
2018-10-02T06:55:01.935Z,9.68
2018-10-02T06:55:42.501Z,9.72
2018-10-02T06:56:23.069Z,9.74
2018-10-02T06:57:03.769Z,9.69
2018-10-02T06:57:44.382Z,9.76
2018-10-02T06:58:25.359Z,9.74
2018-10-02T06:59:05.925Z,9.74
2018-10-02T06:59:46.471Z,9.86
2018-10-02T07:00:27.053Z,9.86
2018-10-02T07:01:07.583Z,9.76
2018-10-02T07:01:48.150Z,9.76
2018-10-02T07:02:28.756Z,9.83
2018-10-02T07:03:09.277Z,9.77
2018-10-02T07:03:49.838Z,9.86
2018-10-02T07:04:30.401Z,9.86
2018-10-02T07:05:10.956Z,9.84
2018-10-02T07:05:51.508Z,9.95
2018-10-02T07:06:32.118Z,10.02
2018-10-02T07:07:12.620Z,10.05
2018-10-02T07:07:53.182Z,10.09
2018-10-02T07:08:33.759Z,10.13
2018-10-02T07:09:14.285Z,10.04
2018-10-02T07:09:54.844Z,10.13
2018-10-02T07:10:35.411Z,10.16
2018-10-02T07:11:15.966Z,10.13
2018-10-02T07:11:56.521Z,10.23
2018-10-02T07:12:37.759Z,10.25
2018-10-02T07:13:18.241Z,10.34
2018-10-02T07:13:58.800Z,10.26
2018-10-02T07:14:39.380Z,10.22
2018-10-02T07:15:19.913Z,10.31
2018-10-02T07:16:00.480Z,10.38
2018-10-02T07:16:41.044Z,10.35
2018-10-02T07:17:21.669Z,10.31
2018-10-02T07:18:02.167Z,10.4
2018-10-02T07:18:42.718Z,10.35
2018-10-02T07:19:23.274Z,10.4
2018-10-02T07:20:03.905Z,10.4
2018-10-02T07:20:44.541Z,10.42
2018-10-02T07:21:25.006Z,10.25
2018-10-02T07:22:05.561Z,10.23
2018-10-02T07:22:46.137Z,10.28
2018-10-02T07:23:26.701Z,10.28
2018-10-02T07:24:07.270Z,10.25
2018-10-02T07:24:47.870Z,10.26
2018-10-02T07:25:28.423Z,10.3
2018-10-02T07:26:08.986Z,10.22
2018-10-02T07:26:49.700Z,10.19
2018-10-02T07:27:30.339Z,10.2
2018-10-02T07:28:10.705Z,10.13
2018-10-02T07:28:51.259Z,10.2
2018-10-02T07:29:31.830Z,10.12
2018-10-02T07:30:12.383Z,10.1
2018-10-02T07:30:53.013Z,10.23
2018-10-02T07:31:33.503Z,10.22
2018-10-02T07:32:14.058Z,10.26
2018-10-02T07:32:54.668Z,10.2
2018-10-02T07:33:35.175Z,10.16
2018-10-02T07:34:15.743Z,10.3
2018-10-02T07:34:56.302Z,10.25
2018-10-02T07:35:36.884Z,10.23
2018-10-02T07:36:17.444Z,10.23
2018-10-02T07:36:58.037Z,10.22
2018-10-02T07:37:38.552Z,10.22
2018-10-02T07:38:19.118Z,10.3
2018-10-02T07:38:59.715Z,10.23
2018-10-02T07:39:40.242Z,10.2
2018-10-02T07:40:20.807Z,10.25
2018-10-02T07:41:01.363Z,10.22
2018-10-02T07:41:42.022Z,10.23
2018-10-02T07:42:22.585Z,10.2
2018-10-02T07:43:03.041Z,10.3
2018-10-02T07:43:43.610Z,10.37
2018-10-02T07:44:24.212Z,10.26
2018-10-02T07:45:04.740Z,10.49
2018-10-02T07:45:45.301Z,10.63
2018-10-02T07:46:25.854Z,10.78
2018-10-02T07:47:06.442Z,10.89
2018-10-02T07:47:47.047Z,11.12
2018-10-02T07:48:27.609Z,11.26
2018-10-02T07:49:08.124Z,11.4
2018-10-02T07:49:48.696Z,11.51
2018-10-02T07:50:29.282Z,11.65
2018-10-02T07:51:09.835Z,11.68
2018-10-02T07:51:50.392Z,11.75
2018-10-02T07:52:30.942Z,11.75
2018-10-02T07:53:11.502Z,11.87
2018-10-02T07:53:52.095Z,11.88
2018-10-02T07:54:32.621Z,11.8
2018-10-02T07:55:13.190Z,11.84
2018-10-02T07:55:53.762Z,11.97
2018-10-02T07:56:34.375Z,11.91
2018-10-02T07:57:14.902Z,11.95
2018-10-02T07:57:55.465Z,12.04
2018-10-02T07:58:36.048Z,12.04
2018-10-02T07:59:16.616Z,12.17
2018-10-02T07:59:57.215Z,12.15
2018-10-02T08:00:38.693Z,12.31
2018-10-02T08:01:19.245Z,12.31
2018-10-02T08:01:59.813Z,12.18
2018-10-02T08:02:40.525Z,12.22
2018-10-02T08:03:20.966Z,12.24
2018-10-02T08:04:01.527Z,12.17
2018-10-02T08:04:42.129Z,12.22
2018-10-02T08:05:22.713Z,12.36
2018-10-02T08:06:03.280Z,12.46
2018-10-02T08:06:43.787Z,12.72
2018-10-02T08:07:24.355Z,12.75
2018-10-02T08:08:04.912Z,12.76
2018-10-02T08:08:45.542Z,12.86
2018-10-02T08:09:26.053Z,13.08
2018-10-02T08:10:06.611Z,13.18
2018-10-02T08:10:47.171Z,13.33
2018-10-02T08:11:27.731Z,13.47
2018-10-02T08:12:08.375Z,13.6
2018-10-02T08:12:48.846Z,13.62
2018-10-02T08:13:29.416Z,13.74
2018-10-02T08:14:09.981Z,13.65
2018-10-02T08:14:50.551Z,13.53
2018-10-02T08:15:31.089Z,13.52
2018-10-02T08:16:11.649Z,13.41
2018-10-02T08:16:52.231Z,13.2
2018-10-02T08:17:32.887Z,13.08
2018-10-02T08:18:13.362Z,13.01
2018-10-02T08:18:53.934Z,12.86
2018-10-02T08:19:34.490Z,12.61
2018-10-02T08:20:15.051Z,12.53
2018-10-02T08:20:55.685Z,12.42
2018-10-02T08:21:36.166Z,12.29
2018-10-02T08:22:16.723Z,12.32
2018-10-02T08:22:57.288Z,12.22
2018-10-02T08:23:37.853Z,12.18
2018-10-02T08:24:18.418Z,12.17
2018-10-02T08:24:58.976Z,12.24
2018-10-02T08:25:39.541Z,12.12
2018-10-02T08:26:20.099Z,12.13
2018-10-02T08:27:00.675Z,12.12
2018-10-02T08:27:41.223Z,12.09
2018-10-02T08:28:21.794Z,11.97
2018-10-02T08:29:02.349Z,12.07
2018-10-02T08:29:42.974Z,11.99
2018-10-02T08:30:23.640Z,11.95
2018-10-02T08:31:04.035Z,11.97
2018-10-02T08:31:44.592Z,11.97
2018-10-02T08:32:25.261Z,11.97
2018-10-02T08:33:05.889Z,11.94
2018-10-02T08:33:46.321Z,12.03
2018-10-02T08:34:26.888Z,11.99
2018-10-02T08:35:07.507Z,12.02
2018-10-02T08:35:48.066Z,11.99
2018-10-02T08:36:28.663Z,12
2018-10-02T08:37:09.190Z,12
2018-10-02T08:37:49.757Z,12.04
2018-10-02T08:38:30.336Z,11.91
2018-10-02T08:39:10.890Z,11.97
2018-10-02T08:39:51.447Z,11.99
2018-10-02T08:40:32.006Z,11.9
2018-10-02T08:41:12.601Z,11.94
2018-10-02T08:41:53.224Z,11.94
2018-10-02T08:42:33.748Z,11.88
2018-10-02T08:43:14.306Z,11.83
2018-10-02T08:43:54.915Z,11.87
2018-10-02T08:44:35.406Z,11.8
2018-10-02T08:45:15.958Z,11.72
2018-10-02T08:45:56.514Z,11.66
2018-10-02T08:46:37.120Z,11.78
2018-10-02T08:47:17.680Z,11.66
2018-10-02T08:47:58.253Z,11.75
2018-10-02T08:48:38.799Z,11.6
2018-10-02T08:49:19.370Z,11.6
2018-10-02T08:49:59.933Z,11.6
2018-10-02T08:50:40.584Z,11.62
2018-10-02T08:51:21.057Z,11.57
2018-10-02T08:52:01.773Z,11.59
2018-10-02T08:52:42.182Z,11.55
2018-10-02T08:53:22.745Z,11.5
2018-10-02T08:54:03.452Z,11.5
2018-10-02T08:54:43.872Z,11.47
2018-10-02T08:55:24.439Z,11.36
2018-10-02T08:56:05.036Z,11.47
2018-10-02T08:56:45.586Z,11.32
2018-10-02T08:57:26.162Z,11.35
2018-10-02T08:58:06.710Z,11.44
2018-10-02T08:58:47.266Z,11.44